Mark K — WQZ8816 — position and weather

sailwx.info

Track history (hours):
 
Tides and Currents Weather Stations Pressure Air Temp Water Temp Dewpoint Dewpoint Depression Visibility Wind Speed Wind Dir Waves Ship Positions

Mark K

Owner: G & H Towing Company, GALVESTON, TX. More information available from US FCC via Universal Licensing System and Coast Guard Vessel Documentation Center.

Last reported at 2017-Sep-22 01:53 UTC. Time now 2017-Nov-22 16:41 UTC.
Position N 30°04' W 093°43'.
Warning: this ship's position is months out of date.

Length 29 m; draft 5 m.

Type: Tug. MMSI: 366921810.

Date/timePositionNaut miles runAvg speedWind from/ knotsBaromVisibWave heightAir tempDewpointWater temp
2017-Sep-22 01:53N 30°04' W 093°43'0 0.0
2017-Sep-21 13:23N 30°04' W 093°43'  
2017-Sep-19 07:15N 29°32' W 094°54'2 9.8
2017-Sep-19 07:00N 29°34' W 094°55'5 9.2
2017-Sep-19 06:30N 29°38' W 094°58'5 8.6
2017-Sep-19 05:58N 29°42' W 095°01'4 7.3
2017-Sep-19 05:29N 29°45' W 095°04'3 0.7
2017-Sep-19 02:01N 29°45' W 095°07'0 0.1
2017-Sep-19 01:58N 29°45' W 095°07'0 0.0
2017-Sep-19 01:25N 29°45' W 095°07'0 0.2
2017-Sep-19 00:09N 29°44' W 095°07'0 0.0
2017-Sep-19 00:01N 29°44' W 095°07'0 0.1
2017-Sep-18 22:41N 29°44' W 095°07'1 0.3
2017-Sep-18 20:52N 29°44' W 095°07'1 0.8
2017-Sep-18 20:07N 29°45' W 095°07'0 0.0
2017-Sep-18 19:55N 29°45' W 095°07'0 0.1
2017-Sep-18 16:09N 29°44' W 095°07'0 0.0
2017-Sep-18 15:55N 29°44' W 095°07'0 0.0
2017-Sep-18 14:19N 29°44' W 095°07'0 0.0
2017-Sep-18 13:58N 29°44' W 095°07'0 0.0
2017-Sep-18 13:25N 29°44' W 095°07'2 0.3
2017-Sep-18 07:04N 29°45' W 095°05'1 0.5
2017-Sep-18 04:16N 29°45' W 095°07'1 1.0
2017-Sep-18 03:18N 29°44' W 095°08'2 0.6
2017-Sep-17 23:02N 29°46' W 095°05'0 2.0
2017-Sep-17 22:58N 29°46' W 095°05'2 2.9
2017-Sep-17 22:16N 29°45' W 095°04'3 7.0
2017-Sep-17 21:55N 29°43' W 095°01'3 7.5
2017-Sep-17 21:30N 29°41' W 094°59'4 7.6
2017-Sep-17 20:59N 29°37' W 094°59'3 5.6
2017-Sep-17 20:30N 29°37' W 095°02'0 0.5
2017-Sep-17 20:00N 29°37' W 095°01'1 1.3
2017-Sep-17 19:30N 29°37' W 095°01'0 0.0
2017-Sep-17 18:57N 29°37' W 095°01'0 0.0
2017-Sep-17 18:30N 29°37' W 095°01'0 0.0
2017-Sep-17 18:00N 29°37' W 095°01'0 0.0
2017-Sep-17 17:30N 29°37' W 095°01'0 0.0
2017-Sep-17 17:00N 29°37' W 095°01'0 0.0
2017-Sep-17 16:30N 29°37' W 095°01'0 0.0
2017-Sep-17 16:00N 29°37' W 095°01'0 0.0
2017-Sep-17 15:30N 29°37' W 095°01'0 0.0
2017-Sep-17 14:57N 29°37' W 095°01'0 0.0
2017-Sep-17 14:30N 29°37' W 095°01'0 0.0
2017-Sep-17 13:57N 29°37' W 095°01'0 0.0
2017-Sep-17 13:30N 29°37' W 095°01'0 0.0
2017-Sep-17 13:00N 29°37' W 095°01'0 0.0
2017-Sep-17 12:21N 29°37' W 095°01'0 0.0
2017-Sep-17 12:00N 29°37' W 095°01'0 0.0
2017-Sep-17 11:30N 29°37' W 095°01'0 0.0
2017-Sep-17 11:00N 29°37' W 095°01'0 0.0
2017-Sep-17 10:27N 29°37' W 095°01'0 0.0
2017-Sep-17 10:00N 29°37' W 095°01'0 0.0
2017-Sep-17 09:30N 29°37' W 095°01'1 1.3
2017-Sep-17 09:00N 29°37' W 095°01'2 3.9
2017-Sep-17 08:30N 29°37' W 094°59'4 7.2
2017-Sep-17 08:00N 29°40' W 094°59'4 7.2
2017-Sep-17 07:30N 29°43' W 095°01'5 1.8
2017-Sep-17 04:49N 29°44' W 095°07'0 0.0
2017-Sep-17 02:40N 29°44' W 095°07'0 0.0
2017-Sep-17 02:28N 29°44' W 095°07'0 0.0
2017-Sep-16 22:25N 29°44' W 095°07'0 0.0
2017-Sep-16 19:52N 29°44' W 095°07'0 0.1
2017-Sep-16 14:23N 29°44' W 095°07'0 1.1
2017-Sep-16 14:00N 29°44' W 095°08'0 0.9
2017-Sep-16 13:28N 29°44' W 095°07'0 0.1
2017-Sep-16 09:49N 29°44' W 095°07'0 0.0
2017-Sep-16 09:19N 29°44' W 095°07'0 0.0
2017-Sep-16 07:28N 29°44' W 095°07'0 0.0
2017-Sep-16 06:58N 29°44' W 095°07'3 5.2
2017-Sep-16 06:29N 29°45' W 095°04'4 2.7
2017-Sep-16 05:03N 29°42' W 095°01'0 2.6
2017-Sep-16 05:01N 29°42' W 095°01'0 0.2
2017-Sep-16 04:31N 29°42' W 095°01'4 7.5
2017-Sep-16 04:00N 29°39' W 094°58'5 9.7
2017-Sep-16 03:31N 29°35' W 094°56'  
Track history (hours):
 
Tides and Currents Weather Stations Pressure Air Temp Water Temp Dewpoint Dewpoint Depression Visibility Wind Speed Wind Dir Waves Ship Positions

Mark K

Owner: G & H Towing Company, GALVESTON, TX. More information available from US FCC via Universal Licensing System and Coast Guard Vessel Documentation Center.

Last reported at 2017-Sep-22 01:53 UTC. Time now 2017-Nov-22 16:41 UTC.
Position N 30°04' W 093°43'.
Warning: this ship's position is months out of date.

Length 29 m; draft 5 m.

Type: Tug. MMSI: 366921810.

Date/timePositionNaut miles runAvg speedWind from/ knotsBaromVisibWave heightAir tempDewpointWater temp
2017-Sep-22 01:53N 30°04' W 093°43'0 0.0
2017-Sep-21 13:23N 30°04' W 093°43'  
2017-Sep-19 07:15N 29°32' W 094°54'2 9.8
2017-Sep-19 07:00N 29°34' W 094°55'5 9.2
2017-Sep-19 06:30N 29°38' W 094°58'5 8.6
2017-Sep-19 05:58N 29°42' W 095°01'4 7.3
2017-Sep-19 05:29N 29°45' W 095°04'3 0.7
2017-Sep-19 02:01N 29°45' W 095°07'0 0.1
2017-Sep-19 01:58N 29°45' W 095°07'0 0.0
2017-Sep-19 01:25N 29°45' W 095°07'0 0.2
2017-Sep-19 00:09N 29°44' W 095°07'0 0.0
2017-Sep-19 00:01N 29°44' W 095°07'0 0.1
2017-Sep-18 22:41N 29°44' W 095°07'1 0.3
2017-Sep-18 20:52N 29°44' W 095°07'1 0.8
2017-Sep-18 20:07N 29°45' W 095°07'0 0.0
2017-Sep-18 19:55N 29°45' W 095°07'0 0.1
2017-Sep-18 16:09N 29°44' W 095°07'0 0.0
2017-Sep-18 15:55N 29°44' W 095°07'0 0.0
2017-Sep-18 14:19N 29°44' W 095°07'0 0.0
2017-Sep-18 13:58N 29°44' W 095°07'0 0.0
2017-Sep-18 13:25N 29°44' W 095°07'2 0.3
2017-Sep-18 07:04N 29°45' W 095°05'1 0.5
2017-Sep-18 04:16N 29°45' W 095°07'1 1.0
2017-Sep-18 03:18N 29°44' W 095°08'2 0.6
2017-Sep-17 23:02N 29°46' W 095°05'0 2.0
2017-Sep-17 22:58N 29°46' W 095°05'2 2.9
2017-Sep-17 22:16N 29°45' W 095°04'3 7.0
2017-Sep-17 21:55N 29°43' W 095°01'3 7.5
2017-Sep-17 21:30N 29°41' W 094°59'4 7.6
2017-Sep-17 20:59N 29°37' W 094°59'3 5.6
2017-Sep-17 20:30N 29°37' W 095°02'0 0.5
2017-Sep-17 20:00N 29°37' W 095°01'1 1.3
2017-Sep-17 19:30N 29°37' W 095°01'0 0.0
2017-Sep-17 18:57N 29°37' W 095°01'0 0.0
2017-Sep-17 18:30N 29°37' W 095°01'0 0.0
2017-Sep-17 18:00N 29°37' W 095°01'0 0.0
2017-Sep-17 17:30N 29°37' W 095°01'0 0.0
2017-Sep-17 17:00N 29°37' W 095°01'0 0.0
2017-Sep-17 16:30N 29°37' W 095°01'0 0.0
2017-Sep-17 16:00N 29°37' W 095°01'0 0.0
2017-Sep-17 15:30N 29°37' W 095°01'0 0.0
2017-Sep-17 14:57N 29°37' W 095°01'0 0.0
2017-Sep-17 14:30N 29°37' W 095°01'0 0.0
2017-Sep-17 13:57N 29°37' W 095°01'0 0.0
2017-Sep-17 13:30N 29°37' W 095°01'0 0.0
2017-Sep-17 13:00N 29°37' W 095°01'0 0.0
2017-Sep-17 12:21N 29°37' W 095°01'0 0.0
2017-Sep-17 12:00N 29°37' W 095°01'0 0.0
2017-Sep-17 11:30N 29°37' W 095°01'0 0.0
2017-Sep-17 11:00N 29°37' W 095°01'0 0.0
2017-Sep-17 10:27N 29°37' W 095°01'0 0.0
2017-Sep-17 10:00N 29°37' W 095°01'0 0.0
2017-Sep-17 09:30N 29°37' W 095°01'1 1.3
2017-Sep-17 09:00N 29°37' W 095°01'2 3.9
2017-Sep-17 08:30N 29°37' W 094°59'4 7.2
2017-Sep-17 08:00N 29°40' W 094°59'4 7.2
2017-Sep-17 07:30N 29°43' W 095°01'5 1.8
2017-Sep-17 04:49N 29°44' W 095°07'0 0.0
2017-Sep-17 02:40N 29°44' W 095°07'0 0.0
2017-Sep-17 02:28N 29°44' W 095°07'0 0.0
2017-Sep-16 22:25N 29°44' W 095°07'0 0.0
2017-Sep-16 19:52N 29°44' W 095°07'0 0.1
2017-Sep-16 14:23N 29°44' W 095°07'0 1.1
2017-Sep-16 14:00N 29°44' W 095°08'0 0.9
2017-Sep-16 13:28N 29°44' W 095°07'0 0.1
2017-Sep-16 09:49N 29°44' W 095°07'0 0.0
2017-Sep-16 09:19N 29°44' W 095°07'0 0.0
2017-Sep-16 07:28N 29°44' W 095°07'0 0.0
2017-Sep-16 06:58N 29°44' W 095°07'3 5.2
2017-Sep-16 06:29N 29°45' W 095°04'4 2.7
2017-Sep-16 05:03N 29°42' W 095°01'0 2.6
2017-Sep-16 05:01N 29°42' W 095°01'0 0.2
2017-Sep-16 04:31N 29°42' W 095°01'4 7.5
2017-Sep-16 04:00N 29°39' W 094°58'5 9.7
2017-Sep-16 03:31N 29°35' W 094°56'  

Dump ship's entire track history